Sion, Switzerland
Current Conditions -  °F | °C
As of 9:50 PM on Friday 28 Nov 2014 (Local Time) from LSMS Reporting Station
Scattered Clouds Scattered Clouds  
Wind Chill: 57°   Ceiling: Unl
Heat Index: 57°   Visibility: 6mi
Dew Point: 37°   Wind: 5mph
Humidity: 48%   Direction: NA
Pressure: 29.8"   Gusts: NA
Location:  46.25°N, 7.35°E
Report Text: LSMS 282050Z AUTO VRB04KT 9999NDV SCT120 14/03 Q1009 RMK BLU
Loading
Personal Weather Stations






























Interactive Weather Map New forecast layout! Learn more

10-Day Weather Forecast

Advertisements
Track Severe Weather on mobile